sensor_id;sensor_type;location;lat;lon;timestamp;P1;durP1;ratioP1;P2;durP2;ratioP2
3293;SDS011;1659;51.470;6.770;2022-07-23T00:00:19;12.03;;;8.30;;
3293;SDS011;1659;51.470;6.770;2022-07-23T00:02:46;16.80;;;9.37;;
3293;SDS011;1659;51.470;6.770;2022-07-23T00:05:13;14.87;;;9.60;;
3293;SDS011;1659;51.470;6.770;2022-07-23T00:07:39;13.23;;;8.47;;
3293;SDS011;1659;51.470;6.770;2022-07-23T00:10:08;15.23;;;9.70;;
3293;SDS011;1659;51.470;6.770;2022-07-23T00:12:35;10.63;;;8.43;;
3293;SDS011;1659;51.470;6.770;2022-07-23T00:15:02;20.30;;;8.70;;
3293;SDS011;1659;51.470;6.770;2022-07-23T00:17:30;19.13;;;8.70;;
3293;SDS011;1659;51.470;6.770;2022-07-23T00:19:57;16.47;;;9.70;;
3293;SDS011;1659;51.470;6.770;2022-07-23T00:22:23;16.90;;;8.83;;
3293;SDS011;1659;51.470;6.770;2022-07-23T00:24:50;14.97;;;8.80;;
3293;SDS011;1659;51.470;6.770;2022-07-23T00:27:18;12.77;;;8.60;;
3293;SDS011;1659;51.470;6.770;2022-07-23T00:29:45;11.40;;;8.83;;
3293;SDS011;1659;51.470;6.770;2022-07-23T00:32:11;16.17;;;9.60;;
3293;SDS011;1659;51.470;6.770;2022-07-23T00:34:38;12.40;;;8.83;;
3293;SDS011;1659;51.470;6.770;2022-07-23T00:37:04;14.03;;;9.40;;
3293;SDS011;1659;51.470;6.770;2022-07-23T00:39:31;19.30;;;10.07;;
3293;SDS011;1659;51.470;6.770;2022-07-23T00:41:57;12.87;;;9.20;;
3293;SDS011;1659;51.470;6.770;2022-07-23T00:44:26;13.73;;;9.97;;
3293;SDS011;1659;51.470;6.770;2022-07-23T00:46:54;10.60;;;8.20;;
3293;SDS011;1659;51.470;6.770;2022-07-23T00:49:23;12.80;;;8.97;;
3293;SDS011;1659;51.470;6.770;2022-07-23T00:51:50;12.67;;;8.80;;
3293;SDS011;1659;51.470;6.770;2022-07-23T00:54:17;17.77;;;9.50;;
3293;SDS011;1659;51.470;6.770;2022-07-23T00:56:46;15.87;;;9.37;;
3293;SDS011;1659;51.470;6.770;2022-07-23T00:59:13;16.13;;;9.07;;
3293;SDS011;1659;51.470;6.770;2022-07-23T01:01:41;16.50;;;9.33;;
3293;SDS011;1659;51.470;6.770;2022-07-23T01:04:09;20.40;;;9.80;;
3293;SDS011;1659;51.470;6.770;2022-07-23T01:06:37;14.37;;;9.90;;
3293;SDS011;1659;51.470;6.770;2022-07-23T01:09:04;13.50;;;9.57;;
3293;SDS011;1659;51.470;6.770;2022-07-23T01:11:32;17.70;;;8.90;;
3293;SDS011;1659;51.470;6.770;2022-07-23T01:14:07;14.83;;;9.57;;
3293;SDS011;1659;51.470;6.770;2022-07-23T01:16:34;14.17;;;9.90;;
3293;SDS011;1659;51.470;6.770;2022-07-23T01:19:02;17.80;;;10.80;;
3293;SDS011;1659;51.470;6.770;2022-07-23T01:21:31;16.07;;;9.23;;
3293;SDS011;1659;51.470;6.770;2022-07-23T01:24:03;15.60;;;10.23;;
3293;SDS011;1659;51.470;6.770;2022-07-23T01:26:30;12.93;;;8.80;;
3293;SDS011;1659;51.470;6.770;2022-07-23T01:28:57;16.13;;;10.60;;
3293;SDS011;1659;51.470;6.770;2022-07-23T01:31:24;19.63;;;9.30;;
3293;SDS011;1659;51.470;6.770;2022-07-23T01:33:50;17.40;;;9.70;;
3293;SDS011;1659;51.470;6.770;2022-07-23T01:36:17;13.40;;;9.00;;
3293;SDS011;1659;51.470;6.770;2022-07-23T01:38:43;16.97;;;9.50;;
3293;SDS011;1659;51.470;6.770;2022-07-23T01:41:11;14.90;;;10.10;;
3293;SDS011;1659;51.470;6.770;2022-07-23T01:43:38;16.53;;;9.27;;
3293;SDS011;1659;51.470;6.770;2022-07-23T01:46:05;21.30;;;10.17;;
3293;SDS011;1659;51.470;6.770;2022-07-23T01:48:31;17.57;;;10.20;;
3293;SDS011;1659;51.470;6.770;2022-07-23T01:50:58;14.67;;;8.57;;
3293;SDS011;1659;51.470;6.770;2022-07-23T01:53:24;13.67;;;9.40;;
3293;SDS011;1659;51.470;6.770;2022-07-23T01:55:51;15.97;;;9.90;;
3293;SDS011;1659;51.470;6.770;2022-07-23T01:58:19;12.47;;;9.10;;
3293;SDS011;1659;51.470;6.770;2022-07-23T02:00:45;17.73;;;10.63;;
3293;SDS011;1659;51.470;6.770;2022-07-23T02:03:12;12.80;;;8.60;;
3293;SDS011;1659;51.470;6.770;2022-07-23T02:05:38;16.10;;;9.73;;
3293;SDS011;1659;51.470;6.770;2022-07-23T02:08:05;13.17;;;9.57;;
3293;SDS011;1659;51.470;6.770;2022-07-23T02:10:32;16.33;;;9.03;;
3293;SDS011;1659;51.470;6.770;2022-07-23T02:12:58;13.20;;;9.97;;
3293;SDS011;1659;51.470;6.770;2022-07-23T02:15:27;12.90;;;9.10;;
3293;SDS011;1659;51.470;6.770;2022-07-23T02:17:53;18.23;;;10.03;;
3293;SDS011;1659;51.470;6.770;2022-07-23T02:20:20;17.07;;;10.00;;
3293;SDS011;1659;51.470;6.770;2022-07-23T02:22:47;17.53;;;9.10;;
3293;SDS011;1659;51.470;6.770;2022-07-23T02:25:14;14.03;;;9.50;;
3293;SDS011;1659;51.470;6.770;2022-07-23T02:27:40;19.97;;;11.10;;
3293;SDS011;1659;51.470;6.770;2022-07-23T02:30:07;15.07;;;9.50;;
3293;SDS011;1659;51.470;6.770;2022-07-23T02:32:36;21.00;;;11.10;;
3293;SDS011;1659;51.470;6.770;2022-07-23T02:35:04;14.47;;;10.10;;
3293;SDS011;1659;51.470;6.770;2022-07-23T02:37:32;19.73;;;11.10;;
3293;SDS011;1659;51.470;6.770;2022-07-23T02:39:58;16.60;;;11.23;;
3293;SDS011;1659;51.470;6.770;2022-07-23T02:42:25;18.60;;;11.33;;
3293;SDS011;1659;51.470;6.770;2022-07-23T02:44:52;19.23;;;13.30;;
3293;SDS011;1659;51.470;6.770;2022-07-23T02:47:18;18.50;;;10.20;;
3293;SDS011;1659;51.470;6.770;2022-07-23T02:49:46;16.00;;;10.03;;
3293;SDS011;1659;51.470;6.770;2022-07-23T02:52:13;22.07;;;9.70;;
3293;SDS011;1659;51.470;6.770;2022-07-23T02:54:39;17.70;;;10.90;;
3293;SDS011;1659;51.470;6.770;2022-07-23T02:57:06;16.40;;;11.27;;
3293;SDS011;1659;51.470;6.770;2022-07-23T02:59:32;17.60;;;10.00;;
3293;SDS011;1659;51.470;6.770;2022-07-23T03:01:59;21.20;;;11.60;;
3293;SDS011;1659;51.470;6.770;2022-07-23T03:04:26;15.37;;;11.30;;
3293;SDS011;1659;51.470;6.770;2022-07-23T03:06:54;15.63;;;10.77;;
3293;SDS011;1659;51.470;6.770;2022-07-23T03:09:20;15.27;;;9.90;;
3293;SDS011;1659;51.470;6.770;2022-07-23T03:11:47;13.00;;;9.60;;
3293;SDS011;1659;51.470;6.770;2022-07-23T03:14:13;15.90;;;10.73;;
3293;SDS011;1659;51.470;6.770;2022-07-23T03:16:41;17.10;;;11.47;;
3293;SDS011;1659;51.470;6.770;2022-07-23T03:19:08;15.97;;;11.00;;
3293;SDS011;1659;51.470;6.770;2022-07-23T03:21:34;17.57;;;10.60;;
3293;SDS011;1659;51.470;6.770;2022-07-23T03:24:06;20.27;;;11.20;;
3293;SDS011;1659;51.470;6.770;2022-07-23T03:26:33;18.40;;;11.40;;
3293;SDS011;1659;51.470;6.770;2022-07-23T03:29:00;16.00;;;10.73;;
3293;SDS011;1659;51.470;6.770;2022-07-23T03:31:28;18.53;;;11.10;;
3293;SDS011;1659;51.470;6.770;2022-07-23T03:33:55;17.67;;;11.60;;
3293;SDS011;1659;51.470;6.770;2022-07-23T03:36:21;17.13;;;10.83;;
3293;SDS011;1659;51.470;6.770;2022-07-23T03:38:48;17.47;;;10.73;;
3293;SDS011;1659;51.470;6.770;2022-07-23T03:41:17;16.13;;;10.90;;
3293;SDS011;1659;51.470;6.770;2022-07-23T03:43:43;19.30;;;11.73;;
3293;SDS011;1659;51.470;6.770;2022-07-23T03:46:10;18.40;;;10.90;;
3293;SDS011;1659;51.470;6.770;2022-07-23T03:48:37;16.23;;;11.23;;
3293;SDS011;1659;51.470;6.770;2022-07-23T03:51:04;20.00;;;12.87;;
3293;SDS011;1659;51.470;6.770;2022-07-23T03:53:30;20.07;;;11.50;;
3293;SDS011;1659;51.470;6.770;2022-07-23T03:55:57;18.67;;;11.80;;
3293;SDS011;1659;51.470;6.770;2022-07-23T03:58:25;21.60;;;11.00;;
3293;SDS011;1659;51.470;6.770;2022-07-23T04:00:51;27.40;;;13.60;;
3293;SDS011;1659;51.470;6.770;2022-07-23T04:03:18;26.10;;;10.77;;
3293;SDS011;1659;51.470;6.770;2022-07-23T04:05:45;22.90;;;10.57;;
3293;SDS011;1659;51.470;6.770;2022-07-23T04:08:11;18.20;;;10.33;;
3293;SDS011;1659;51.470;6.770;2022-07-23T04:10:38;19.97;;;12.30;;
3293;SDS011;1659;51.470;6.770;2022-07-23T04:13:04;18.83;;;11.50;;
3293;SDS011;1659;51.470;6.770;2022-07-23T04:15:32;20.80;;;11.33;;
3293;SDS011;1659;51.470;6.770;2022-07-23T04:17:59;20.83;;;12.43;;
3293;SDS011;1659;51.470;6.770;2022-07-23T04:20:25;19.23;;;12.53;;
3293;SDS011;1659;51.470;6.770;2022-07-23T04:22:52;21.17;;;11.70;;
3293;SDS011;1659;51.470;6.770;2022-07-23T04:25:18;22.20;;;13.43;;
3293;SDS011;1659;51.470;6.770;2022-07-23T04:27:45;22.77;;;13.40;;
3293;SDS011;1659;51.470;6.770;2022-07-23T04:30:12;19.63;;;12.40;;
3293;SDS011;1659;51.470;6.770;2022-07-23T04:32:40;33.50;;;12.80;;
3293;SDS011;1659;51.470;6.770;2022-07-23T04:35:07;21.03;;;14.07;;
3293;SDS011;1659;51.470;6.770;2022-07-23T04:37:34;18.90;;;12.00;;
3293;SDS011;1659;51.470;6.770;2022-07-23T04:40:00;18.23;;;11.50;;
3293;SDS011;1659;51.470;6.770;2022-07-23T04:42:27;19.83;;;11.70;;
3293;SDS011;1659;51.470;6.770;2022-07-23T04:44:53;18.00;;;11.37;;
3293;SDS011;1659;51.470;6.770;2022-07-23T04:47:20;22.50;;;13.00;;
3293;SDS011;1659;51.470;6.770;2022-07-23T04:49:48;21.00;;;12.27;;
3293;SDS011;1659;51.470;6.770;2022-07-23T04:52:14;21.57;;;12.60;;
3293;SDS011;1659;51.470;6.770;2022-07-23T04:54:41;22.40;;;13.83;;
3293;SDS011;1659;51.470;6.770;2022-07-23T04:57:08;24.03;;;13.67;;
3293;SDS011;1659;51.470;6.770;2022-07-23T04:59:34;22.10;;;13.43;;
3293;SDS011;1659;51.470;6.770;2022-07-23T05:02:01;21.40;;;12.80;;
3293;SDS011;1659;51.470;6.770;2022-07-23T05:04:27;23.43;;;13.47;;
3293;SDS011;1659;51.470;6.770;2022-07-23T05:06:55;24.43;;;14.40;;
3293;SDS011;1659;51.470;6.770;2022-07-23T05:09:22;18.87;;;12.73;;
3293;SDS011;1659;51.470;6.770;2022-07-23T05:11:51;24.27;;;12.93;;
3293;SDS011;1659;51.470;6.770;2022-07-23T05:14:18;21.30;;;12.73;;
3293;SDS011;1659;51.470;6.770;2022-07-23T05:16:45;23.30;;;14.03;;
3293;SDS011;1659;51.470;6.770;2022-07-23T05:19:11;24.20;;;14.10;;
3293;SDS011;1659;51.470;6.770;2022-07-23T05:21:38;25.50;;;14.53;;
3293;SDS011;1659;51.470;6.770;2022-07-23T05:24:07;29.93;;;15.27;;
3293;SDS011;1659;51.470;6.770;2022-07-23T05:26:33;29.33;;;14.73;;
3293;SDS011;1659;51.470;6.770;2022-07-23T05:29:00;22.57;;;14.60;;
3293;SDS011;1659;51.470;6.770;2022-07-23T05:31:26;25.40;;;14.27;;
3293;SDS011;1659;51.470;6.770;2022-07-23T05:33:53;24.00;;;14.60;;
3293;SDS011;1659;51.470;6.770;2022-07-23T05:36:20;22.83;;;13.77;;
3293;SDS011;1659;51.470;6.770;2022-07-23T05:38:46;18.60;;;12.40;;
3293;SDS011;1659;51.470;6.770;2022-07-23T05:41:14;16.80;;;11.97;;
3293;SDS011;1659;51.470;6.770;2022-07-23T05:43:41;17.53;;;10.90;;
3293;SDS011;1659;51.470;6.770;2022-07-23T05:46:08;18.73;;;11.27;;
3293;SDS011;1659;51.470;6.770;2022-07-23T05:48:35;12.83;;;10.00;;
3293;SDS011;1659;51.470;6.770;2022-07-23T05:51:01;11.50;;;9.20;;
3293;SDS011;1659;51.470;6.770;2022-07-23T05:53:31;17.40;;;9.40;;
3293;SDS011;1659;51.470;6.770;2022-07-23T05:55:58;14.00;;;8.93;;
3293;SDS011;1659;51.470;6.770;2022-07-23T05:58:26;12.20;;;8.53;;
3293;SDS011;1659;51.470;6.770;2022-07-23T06:00:53;14.60;;;9.20;;
3293;SDS011;1659;51.470;6.770;2022-07-23T06:03:19;18.07;;;9.70;;
3293;SDS011;1659;51.470;6.770;2022-07-23T06:05:46;12.63;;;9.13;;
3293;SDS011;1659;51.470;6.770;2022-07-23T06:08:12;13.47;;;9.43;;
3293;SDS011;1659;51.470;6.770;2022-07-23T06:10:39;13.53;;;8.90;;
3293;SDS011;1659;51.470;6.770;2022-07-23T06:13:05;16.40;;;9.27;;
3293;SDS011;1659;51.470;6.770;2022-07-23T06:15:34;14.10;;;8.37;;
3293;SDS011;1659;51.470;6.770;2022-07-23T06:18:00;13.63;;;10.10;;
3293;SDS011;1659;51.470;6.770;2022-07-23T06:20:27;17.17;;;9.73;;
3293;SDS011;1659;51.470;6.770;2022-07-23T06:22:53;16.10;;;10.70;;
3293;SDS011;1659;51.470;6.770;2022-07-23T06:25:20;14.53;;;9.63;;
3293;SDS011;1659;51.470;6.770;2022-07-23T06:27:47;10.73;;;8.50;;
3293;SDS011;1659;51.470;6.770;2022-07-23T06:30:14;14.50;;;9.60;;
3293;SDS011;1659;51.470;6.770;2022-07-23T06:32:43;9.80;;;8.17;;
3293;SDS011;1659;51.470;6.770;2022-07-23T06:35:10;10.00;;;8.57;;
3293;SDS011;1659;51.470;6.770;2022-07-23T06:37:37;13.70;;;9.17;;
3293;SDS011;1659;51.470;6.770;2022-07-23T06:40:04;12.17;;;8.10;;
3293;SDS011;1659;51.470;6.770;2022-07-23T06:42:31;15.03;;;9.70;;
3293;SDS011;1659;51.470;6.770;2022-07-23T06:44:57;14.60;;;9.10;;
3293;SDS011;1659;51.470;6.770;2022-07-23T06:47:24;11.63;;;9.37;;
3293;SDS011;1659;51.470;6.770;2022-07-23T06:49:52;9.00;;;7.70;;
3293;SDS011;1659;51.470;6.770;2022-07-23T06:52:18;13.87;;;9.07;;
3293;SDS011;1659;51.470;6.770;2022-07-23T06:54:45;13.23;;;9.43;;
3293;SDS011;1659;51.470;6.770;2022-07-23T06:57:12;10.90;;;8.40;;
3293;SDS011;1659;51.470;6.770;2022-07-23T06:59:38;10.10;;;7.73;;
3293;SDS011;1659;51.470;6.770;2022-07-23T07:02:05;7.50;;;6.10;;
3293;SDS011;1659;51.470;6.770;2022-07-23T07:04:32;6.83;;;6.10;;
3293;SDS011;1659;51.470;6.770;2022-07-23T07:07:00;11.10;;;8.00;;
3293;SDS011;1659;51.470;6.770;2022-07-23T07:09:27;9.30;;;7.57;;
3293;SDS011;1659;51.470;6.770;2022-07-23T07:11:53;11.50;;;7.53;;
3293;SDS011;1659;51.470;6.770;2022-07-23T07:14:20;7.90;;;5.90;;
3293;SDS011;1659;51.470;6.770;2022-07-23T07:16:46;6.93;;;6.03;;
3293;SDS011;1659;51.470;6.770;2022-07-23T07:19:13;13.67;;;6.60;;
3293;SDS011;1659;51.470;6.770;2022-07-23T07:21:40;7.80;;;7.00;;
3293;SDS011;1659;51.470;6.770;2022-07-23T07:24:08;8.80;;;6.50;;
3293;SDS011;1659;51.470;6.770;2022-07-23T07:26:34;8.57;;;6.80;;
3293;SDS011;1659;51.470;6.770;2022-07-23T07:29:01;8.83;;;6.77;;
3293;SDS011;1659;51.470;6.770;2022-07-23T07:31:27;11.67;;;7.20;;
3293;SDS011;1659;51.470;6.770;2022-07-23T07:33:54;7.30;;;6.30;;
3293;SDS011;1659;51.470;6.770;2022-07-23T07:36:21;7.97;;;6.20;;
3293;SDS011;1659;51.470;6.770;2022-07-23T07:38:48;9.77;;;6.00;;
3293;SDS011;1659;51.470;6.770;2022-07-23T07:41:16;11.53;;;6.30;;
3293;SDS011;1659;51.470;6.770;2022-07-23T07:43:47;6.50;;;5.87;;
3293;SDS011;1659;51.470;6.770;2022-07-23T07:46:14;7.73;;;6.63;;
3293;SDS011;1659;51.470;6.770;2022-07-23T07:48:40;5.73;;;5.13;;
3293;SDS011;1659;51.470;6.770;2022-07-23T07:51:07;5.93;;;5.33;;
3293;SDS011;1659;51.470;6.770;2022-07-23T07:53:34;9.73;;;4.80;;
3293;SDS011;1659;51.470;6.770;2022-07-23T07:56:00;6.03;;;4.80;;
3293;SDS011;1659;51.470;6.770;2022-07-23T07:58:29;7.70;;;4.83;;
3293;SDS011;1659;51.470;6.770;2022-07-23T08:00:55;8.83;;;6.37;;
3293;SDS011;1659;51.470;6.770;2022-07-23T08:03:22;7.30;;;5.47;;
3293;SDS011;1659;51.470;6.770;2022-07-23T08:05:48;8.80;;;5.73;;
3293;SDS011;1659;51.470;6.770;2022-07-23T08:08:15;5.70;;;4.97;;
3293;SDS011;1659;51.470;6.770;2022-07-23T08:10:41;8.93;;;5.30;;
3293;SDS011;1659;51.470;6.770;2022-07-23T08:13:10;5.97;;;4.60;;
3293;SDS011;1659;51.470;6.770;2022-07-23T08:15:40;6.03;;;4.57;;
3293;SDS011;1659;51.470;6.770;2022-07-23T08:18:07;8.40;;;5.43;;
3293;SDS011;1659;51.470;6.770;2022-07-23T08:20:34;6.83;;;5.13;;
3293;SDS011;1659;51.470;6.770;2022-07-23T08:23:02;5.93;;;4.93;;
3293;SDS011;1659;51.470;6.770;2022-07-23T08:25:30;8.07;;;5.27;;
3293;SDS011;1659;51.470;6.770;2022-07-23T08:27:58;5.57;;;5.07;;
3293;SDS011;1659;51.470;6.770;2022-07-23T08:30:25;5.90;;;5.30;;
3293;SDS011;1659;51.470;6.770;2022-07-23T08:32:55;9.33;;;5.70;;
3293;SDS011;1659;51.470;6.770;2022-07-23T08:35:25;17.13;;;6.97;;
3293;SDS011;1659;51.470;6.770;2022-07-23T08:37:53;13.30;;;7.40;;
3293;SDS011;1659;51.470;6.770;2022-07-23T08:40:19;16.60;;;7.20;;
3293;SDS011;1659;51.470;6.770;2022-07-23T08:42:47;27.50;;;9.00;;
3293;SDS011;1659;51.470;6.770;2022-07-23T08:45:15;15.93;;;8.37;;
3293;SDS011;1659;51.470;6.770;2022-07-23T08:47:43;10.90;;;7.20;;
3293;SDS011;1659;51.470;6.770;2022-07-23T08:50:12;15.10;;;7.43;;
3293;SDS011;1659;51.470;6.770;2022-07-23T08:52:40;7.00;;;6.30;;
3293;SDS011;1659;51.470;6.770;2022-07-23T08:55:07;13.10;;;7.47;;
3293;SDS011;1659;51.470;6.770;2022-07-23T08:57:34;10.17;;;7.90;;
3293;SDS011;1659;51.470;6.770;2022-07-23T09:00:01;11.30;;;7.30;;
3293;SDS011;1659;51.470;6.770;2022-07-23T09:02:29;12.63;;;7.27;;
3293;SDS011;1659;51.470;6.770;2022-07-23T09:04:56;15.40;;;7.67;;
3293;SDS011;1659;51.470;6.770;2022-07-23T09:07:24;6.47;;;5.40;;
3293;SDS011;1659;51.470;6.770;2022-07-23T09:10:04;9.00;;;5.33;;
3293;SDS011;1659;51.470;6.770;2022-07-23T09:12:36;8.00;;;5.77;;
3293;SDS011;1659;51.470;6.770;2022-07-23T09:15:03;9.13;;;5.67;;
3293;SDS011;1659;51.470;6.770;2022-07-23T09:17:36;9.63;;;5.90;;
3293;SDS011;1659;51.470;6.770;2022-07-23T09:20:07;7.70;;;5.40;;
3293;SDS011;1659;51.470;6.770;2022-07-23T09:22:37;8.23;;;4.97;;
3293;SDS011;1659;51.470;6.770;2022-07-23T09:25:05;11.20;;;5.57;;
3293;SDS011;1659;51.470;6.770;2022-07-23T09:27:51;5.80;;;5.10;;
3293;SDS011;1659;51.470;6.770;2022-07-23T09:30:20;5.47;;;4.13;;
3293;SDS011;1659;51.470;6.770;2022-07-23T09:33:03;6.23;;;4.00;;
3293;SDS011;1659;51.470;6.770;2022-07-23T09:35:47;5.50;;;3.43;;
3293;SDS011;1659;51.470;6.770;2022-07-23T09:38:17;8.43;;;4.80;;
3293;SDS011;1659;51.470;6.770;2022-07-23T09:40:44;15.60;;;6.97;;
3293;SDS011;1659;51.470;6.770;2022-07-23T09:43:12;8.57;;;5.10;;
3293;SDS011;1659;51.470;6.770;2022-07-23T09:45:39;6.80;;;5.17;;
3293;SDS011;1659;51.470;6.770;2022-07-23T09:48:12;7.00;;;4.30;;
3293;SDS011;1659;51.470;6.770;2022-07-23T09:50:40;4.27;;;3.87;;
3293;SDS011;1659;51.470;6.770;2022-07-23T09:53:07;5.20;;;3.60;;
3293;SDS011;1659;51.470;6.770;2022-07-23T09:55:36;7.10;;;4.00;;
3293;SDS011;1659;51.470;6.770;2022-07-23T09:58:03;9.37;;;4.17;;
3293;SDS011;1659;51.470;6.770;2022-07-23T10:00:33;7.90;;;5.00;;
3293;SDS011;1659;51.470;6.770;2022-07-23T10:03:01;6.63;;;4.77;;
3293;SDS011;1659;51.470;6.770;2022-07-23T10:05:29;7.67;;;4.43;;
3293;SDS011;1659;51.470;6.770;2022-07-23T10:07:56;5.40;;;4.47;;
3293;SDS011;1659;51.470;6.770;2022-07-23T10:10:26;5.17;;;4.03;;
3293;SDS011;1659;51.470;6.770;2022-07-23T10:12:55;4.60;;;3.87;;
3293;SDS011;1659;51.470;6.770;2022-07-23T10:15:37;4.00;;;3.60;;
3293;SDS011;1659;51.470;6.770;2022-07-23T10:18:06;4.80;;;4.30;;
3293;SDS011;1659;51.470;6.770;2022-07-23T10:20:36;9.33;;;4.50;;
3293;SDS011;1659;51.470;6.770;2022-07-23T10:23:04;6.37;;;3.00;;
3293;SDS011;1659;51.470;6.770;2022-07-23T10:25:41;3.60;;;3.30;;
3293;SDS011;1659;51.470;6.770;2022-07-23T10:28:25;18.13;;;4.37;;
3293;SDS011;1659;51.470;6.770;2022-07-23T10:31:08;4.80;;;4.27;;
3293;SDS011;1659;51.470;6.770;2022-07-23T10:33:45;7.20;;;4.43;;
3293;SDS011;1659;51.470;6.770;2022-07-23T10:36:22;4.50;;;4.10;;
3293;SDS011;1659;51.470;6.770;2022-07-23T10:38:54;3.97;;;3.67;;
3293;SDS011;1659;51.470;6.770;2022-07-23T10:41:30;3.97;;;3.63;;
3293;SDS011;1659;51.470;6.770;2022-07-23T10:44:09;8.87;;;4.93;;
3293;SDS011;1659;51.470;6.770;2022-07-23T10:49:26;7.90;;;4.67;;
3293;SDS011;1659;51.470;6.770;2022-07-23T10:52:15;6.33;;;4.80;;
3293;SDS011;1659;51.470;6.770;2022-07-23T10:54:44;5.13;;;3.77;;
3293;SDS011;1659;51.470;6.770;2022-07-23T10:57:12;5.70;;;4.03;;
3293;SDS011;1659;51.470;6.770;2022-07-23T11:02:49;7.50;;;4.43;;
3293;SDS011;1659;51.470;6.770;2022-07-23T11:05:17;7.13;;;4.30;;
3293;SDS011;1659;51.470;6.770;2022-07-23T11:10:50;2.90;;;2.70;;
3293;SDS011;1659;51.470;6.770;2022-07-23T11:13:25;5.93;;;2.90;;
3293;SDS011;1659;51.470;6.770;2022-07-23T11:16:08;4.60;;;3.23;;
3293;SDS011;1659;51.470;6.770;2022-07-23T11:21:45;3.10;;;2.80;;
3293;SDS011;1659;51.470;6.770;2022-07-23T11:24:13;4.40;;;2.40;;
3293;SDS011;1659;51.470;6.770;2022-07-23T11:26:45;5.30;;;3.43;;
3293;SDS011;1659;51.470;6.770;2022-07-23T11:32:22;4.53;;;3.00;;
3293;SDS011;1659;51.470;6.770;2022-07-23T11:35:20;14.07;;;3.90;;
3293;SDS011;1659;51.470;6.770;2022-07-23T11:37:49;7.10;;;2.43;;
3293;SDS011;1659;51.470;6.770;2022-07-23T11:40:19;8.23;;;3.23;;
3293;SDS011;1659;51.470;6.770;2022-07-23T11:42:51;5.13;;;3.33;;
3293;SDS011;1659;51.470;6.770;2022-07-23T11:45:18;5.30;;;4.00;;
3293;SDS011;1659;51.470;6.770;2022-07-23T11:47:47;4.33;;;3.00;;
3293;SDS011;1659;51.470;6.770;2022-07-23T11:50:13;3.13;;;2.90;;
3293;SDS011;1659;51.470;6.770;2022-07-23T11:52:40;4.07;;;3.17;;
3293;SDS011;1659;51.470;6.770;2022-07-23T11:55:07;2.73;;;2.50;;
3293;SDS011;1659;51.470;6.770;2022-07-23T11:57:35;4.30;;;3.10;;
3293;SDS011;1659;51.470;6.770;2022-07-23T12:00:05;5.83;;;3.70;;
3293;SDS011;1659;51.470;6.770;2022-07-23T12:02:35;4.23;;;3.17;;
3293;SDS011;1659;51.470;6.770;2022-07-23T12:05:03;3.43;;;3.17;;
3293;SDS011;1659;51.470;6.770;2022-07-23T12:07:31;3.57;;;3.20;;
3293;SDS011;1659;51.470;6.770;2022-07-23T12:10:02;3.13;;;2.93;;
3293;SDS011;1659;51.470;6.770;2022-07-23T12:12:39;3.80;;;3.27;;
3293;SDS011;1659;51.470;6.770;2022-07-23T12:15:08;3.77;;;3.47;;
3293;SDS011;1659;51.470;6.770;2022-07-23T12:17:36;4.37;;;3.57;;
3293;SDS011;1659;51.470;6.770;2022-07-23T12:20:06;7.83;;;3.10;;
3293;SDS011;1659;51.470;6.770;2022-07-23T12:22:36;3.20;;;2.83;;
3293;SDS011;1659;51.470;6.770;2022-07-23T12:25:05;3.03;;;2.83;;
3293;SDS011;1659;51.470;6.770;2022-07-23T12:27:34;7.33;;;3.40;;
3293;SDS011;1659;51.470;6.770;2022-07-23T12:30:14;3.30;;;3.00;;
3293;SDS011;1659;51.470;6.770;2022-07-23T12:32:46;5.13;;;3.00;;
3293;SDS011;1659;51.470;6.770;2022-07-23T12:35:16;2.63;;;2.53;;
3293;SDS011;1659;51.470;6.770;2022-07-23T12:37:44;3.67;;;2.60;;
3293;SDS011;1659;51.470;6.770;2022-07-23T12:40:18;3.47;;;3.00;;
3293;SDS011;1659;51.470;6.770;2022-07-23T12:42:47;4.40;;;3.23;;
3293;SDS011;1659;51.470;6.770;2022-07-23T12:45:15;4.70;;;3.47;;
3293;SDS011;1659;51.470;6.770;2022-07-23T12:48:02;4.27;;;3.50;;
3293;SDS011;1659;51.470;6.770;2022-07-23T12:50:42;3.33;;;2.80;;
3293;SDS011;1659;51.470;6.770;2022-07-23T12:53:12;5.07;;;3.77;;
3293;SDS011;1659;51.470;6.770;2022-07-23T12:55:41;3.20;;;2.90;;
3293;SDS011;1659;51.470;6.770;2022-07-23T12:58:12;3.00;;;2.80;;
3293;SDS011;1659;51.470;6.770;2022-07-23T13:00:57;3.90;;;3.60;;
3293;SDS011;1659;51.470;6.770;2022-07-23T13:03:27;3.13;;;2.50;;
3293;SDS011;1659;51.470;6.770;2022-07-23T13:05:58;3.20;;;2.90;;
3293;SDS011;1659;51.470;6.770;2022-07-23T13:08:26;3.60;;;3.13;;
3293;SDS011;1659;51.470;6.770;2022-07-23T13:10:54;3.10;;;2.90;;
3293;SDS011;1659;51.470;6.770;2022-07-23T13:13:21;3.60;;;3.30;;
3293;SDS011;1659;51.470;6.770;2022-07-23T13:15:49;3.00;;;2.80;;
3293;SDS011;1659;51.470;6.770;2022-07-23T13:18:16;3.07;;;2.87;;
3293;SDS011;1659;51.470;6.770;2022-07-23T13:20:43;3.63;;;3.33;;
3293;SDS011;1659;51.470;6.770;2022-07-23T13:23:11;3.30;;;3.00;;
3293;SDS011;1659;51.470;6.770;2022-07-23T13:25:38;3.50;;;2.90;;
3293;SDS011;1659;51.470;6.770;2022-07-23T13:28:04;3.20;;;2.93;;
3293;SDS011;1659;51.470;6.770;2022-07-23T13:30:31;4.27;;;3.33;;
3293;SDS011;1659;51.470;6.770;2022-07-23T13:32:58;3.00;;;2.80;;
3293;SDS011;1659;51.470;6.770;2022-07-23T13:35:25;3.33;;;3.00;;
3293;SDS011;1659;51.470;6.770;2022-07-23T13:37:52;3.80;;;3.37;;
3293;SDS011;1659;51.470;6.770;2022-07-23T13:40:20;3.00;;;2.77;;
3293;SDS011;1659;51.470;6.770;2022-07-23T13:42:47;3.70;;;3.20;;
3293;SDS011;1659;51.470;6.770;2022-07-23T13:45:13;4.87;;;4.37;;
3293;SDS011;1659;51.470;6.770;2022-07-23T13:47:40;4.70;;;4.20;;
3293;SDS011;1659;51.470;6.770;2022-07-23T13:50:07;8.40;;;3.93;;
3293;SDS011;1659;51.470;6.770;2022-07-23T13:52:34;4.00;;;3.60;;
3293;SDS011;1659;51.470;6.770;2022-07-23T13:55:00;3.80;;;3.50;;
3293;SDS011;1659;51.470;6.770;2022-07-23T13:57:30;4.60;;;3.70;;
3293;SDS011;1659;51.470;6.770;2022-07-23T13:59:56;3.67;;;3.37;;
3293;SDS011;1659;51.470;6.770;2022-07-23T14:02:23;4.70;;;4.23;;
3293;SDS011;1659;51.470;6.770;2022-07-23T14:04:50;4.10;;;3.70;;
3293;SDS011;1659;51.470;6.770;2022-07-23T14:07:17;4.87;;;4.03;;
3293;SDS011;1659;51.470;6.770;2022-07-23T14:09:44;4.97;;;3.97;;
3293;SDS011;1659;51.470;6.770;2022-07-23T14:12:11;5.80;;;4.00;;
3293;SDS011;1659;51.470;6.770;2022-07-23T14:14:39;7.00;;;4.20;;
3293;SDS011;1659;51.470;6.770;2022-07-23T14:17:05;5.67;;;4.30;;
3293;SDS011;1659;51.470;6.770;2022-07-23T14:19:32;6.80;;;4.67;;
3293;SDS011;1659;51.470;6.770;2022-07-23T14:22:00;12.23;;;4.30;;
3293;SDS011;1659;51.470;6.770;2022-07-23T14:24:27;8.07;;;4.93;;
3293;SDS011;1659;51.470;6.770;2022-07-23T14:26:53;6.13;;;5.00;;
3293;SDS011;1659;51.470;6.770;2022-07-23T14:29:20;4.43;;;4.03;;
3293;SDS011;1659;51.470;6.770;2022-07-23T14:31:48;11.53;;;5.40;;
3293;SDS011;1659;51.470;6.770;2022-07-23T14:34:15;5.47;;;4.77;;
3293;SDS011;1659;51.470;6.770;2022-07-23T14:36:41;8.23;;;5.17;;
3293;SDS011;1659;51.470;6.770;2022-07-23T14:39:08;5.30;;;4.10;;
3293;SDS011;1659;51.470;6.770;2022-07-23T14:41:36;5.90;;;4.77;;
3293;SDS011;1659;51.470;6.770;2022-07-23T14:44:03;6.87;;;3.70;;
3293;SDS011;1659;51.470;6.770;2022-07-23T14:46:31;4.27;;;3.87;;
3293;SDS011;1659;51.470;6.770;2022-07-23T14:48:59;4.03;;;3.73;;
3293;SDS011;1659;51.470;6.770;2022-07-23T14:51:25;4.23;;;3.90;;
3293;SDS011;1659;51.470;6.770;2022-07-23T14:53:52;4.40;;;3.90;;
3293;SDS011;1659;51.470;6.770;2022-07-23T14:56:19;5.73;;;4.57;;
3293;SDS011;1659;51.470;6.770;2022-07-23T14:58:46;7.93;;;4.53;;
3293;SDS011;1659;51.470;6.770;2022-07-23T15:01:12;7.13;;;3.93;;
3293;SDS011;1659;51.470;6.770;2022-07-23T15:03:39;6.63;;;4.17;;
3293;SDS011;1659;51.470;6.770;2022-07-23T15:06:07;5.80;;;4.27;;
3293;SDS011;1659;51.470;6.770;2022-07-23T15:08:34;9.33;;;3.97;;
3293;SDS011;1659;51.470;6.770;2022-07-23T15:11:01;7.90;;;4.90;;
3293;SDS011;1659;51.470;6.770;2022-07-23T15:13:27;6.03;;;4.83;;
3293;SDS011;1659;51.470;6.770;2022-07-23T15:15:54;8.63;;;4.50;;
3293;SDS011;1659;51.470;6.770;2022-07-23T15:18:20;9.50;;;3.97;;
3293;SDS011;1659;51.470;6.770;2022-07-23T15:20:47;5.40;;;4.07;;
3293;SDS011;1659;51.470;6.770;2022-07-23T15:23:15;7.70;;;3.97;;
3293;SDS011;1659;51.470;6.770;2022-07-23T15:25:42;3.93;;;3.53;;